createdAt,value
2023-05-16T00:02:02.234Z,6.70
2023-05-16T00:04:31.169Z,6.87
2023-05-16T00:06:59.970Z,6.87
2023-05-16T00:09:28.590Z,6.23
2023-05-16T00:11:57.943Z,6.77
2023-05-16T00:14:26.742Z,6.40
2023-05-16T00:16:58.573Z,6.30
2023-05-16T00:19:27.896Z,6.00
2023-05-16T00:21:56.536Z,5.87
2023-05-16T00:24:25.093Z,6.57
2023-05-16T00:26:53.702Z,6.20
2023-05-16T00:29:24.330Z,6.03
2023-05-16T00:31:53.095Z,6.60
2023-05-16T00:34:23.181Z,6.73
2023-05-16T00:36:51.919Z,6.53
2023-05-16T00:39:20.515Z,7.60
2023-05-16T00:41:49.118Z,7.70
2023-05-16T00:44:17.716Z,6.40
2023-05-16T00:46:46.389Z,7.50
2023-05-16T00:49:15.224Z,7.33
2023-05-16T00:51:45.364Z,7.50
2023-05-16T00:54:14.002Z,7.30
2023-05-16T00:56:43.555Z,7.27
2023-05-16T00:59:12.192Z,7.37
2023-05-16T01:01:42.290Z,7.40
2023-05-16T01:04:11.088Z,7.67
2023-05-16T01:06:39.745Z,7.33
2023-05-16T01:09:09.842Z,7.50
2023-05-16T01:11:45.100Z,7.70
2023-05-16T01:14:18.686Z,7.73
2023-05-16T01:16:50.644Z,7.90
2023-05-16T01:19:33.137Z,8.37
2023-05-16T01:22:06.210Z,8.33
2023-05-16T01:24:42.524Z,8.50
2023-05-16T01:27:12.977Z,8.70
2023-05-16T01:29:41.664Z,9.17
2023-05-16T01:32:10.348Z,8.60
2023-05-16T01:34:38.998Z,9.00
2023-05-16T01:37:14.176Z,8.70
2023-05-16T01:39:46.802Z,8.77
2023-05-16T01:42:17.348Z,8.40
2023-05-16T01:44:49.055Z,8.57
2023-05-16T01:47:19.228Z,10.03
2023-05-16T01:49:52.491Z,8.30
2023-05-16T01:52:25.098Z,7.70
2023-05-16T01:54:55.093Z,8.90
2023-05-16T01:57:27.495Z,7.67
2023-05-16T01:59:56.110Z,9.00
2023-05-16T02:02:24.862Z,8.03
2023-05-16T02:04:53.507Z,8.77
2023-05-16T02:07:22.195Z,8.60
2023-05-16T02:09:50.760Z,9.10
2023-05-16T02:12:19.365Z,8.53
2023-05-16T02:14:49.269Z,8.90
2023-05-16T02:17:17.893Z,7.70
2023-05-16T02:19:46.529Z,8.43
2023-05-16T02:22:15.174Z,8.20
2023-05-16T02:24:43.809Z,8.47
2023-05-16T02:27:12.395Z,8.23
2023-05-16T02:29:41.025Z,8.30
2023-05-16T02:32:11.039Z,7.90
2023-05-16T02:34:39.893Z,8.67
2023-05-16T02:37:08.484Z,8.67
2023-05-16T02:39:37.899Z,9.80
2023-05-16T02:42:07.686Z,8.83
2023-05-16T02:44:36.369Z,8.80
2023-05-16T02:47:05.510Z,8.43
2023-05-16T02:49:35.518Z,9.10
2023-05-16T02:52:04.555Z,8.87
2023-05-16T02:54:33.675Z,7.93
2023-05-16T02:57:02.596Z,9.40
2023-05-16T02:59:31.235Z,9.97
2023-05-16T03:01:59.829Z,8.47
2023-05-16T03:04:28.547Z,8.73
2023-05-16T03:06:58.699Z,8.97
2023-05-16T03:09:27.508Z,9.53
2023-05-16T03:11:56.366Z,10.17
2023-05-16T03:14:25.050Z,8.80
2023-05-16T03:16:53.704Z,10.13
2023-05-16T03:19:22.429Z,9.80
2023-05-16T03:21:51.033Z,9.67
2023-05-16T03:24:22.867Z,9.20
2023-05-16T03:26:52.150Z,8.97
2023-05-16T03:29:20.806Z,9.77
2023-05-16T03:31:49.417Z,9.73
2023-05-16T03:34:18.796Z,10.00
2023-05-16T03:36:47.392Z,9.73
2023-05-16T03:39:16.083Z,9.37
2023-05-16T03:41:46.123Z,9.90
2023-05-16T03:44:14.777Z,10.27
2023-05-16T03:46:43.430Z,9.00
2023-05-16T03:49:12.012Z,9.80
2023-05-16T03:51:40.656Z,10.77
2023-05-16T03:54:09.217Z,9.93
2023-05-16T03:56:37.792Z,9.80
2023-05-16T03:59:07.821Z,10.10
2023-05-16T04:01:36.429Z,10.00
2023-05-16T04:04:05.521Z,10.80
2023-05-16T04:06:34.295Z,10.00
2023-05-16T04:09:02.913Z,11.40
2023-05-16T04:11:31.525Z,11.00
2023-05-16T04:14:01.772Z,11.67
2023-05-16T04:16:31.937Z,10.10
2023-05-16T04:19:00.596Z,10.67
2023-05-16T04:21:29.176Z,12.73
2023-05-16T04:23:57.891Z,12.87
2023-05-16T04:26:27.457Z,12.67
2023-05-16T04:28:56.026Z,13.60
2023-05-16T04:31:25.306Z,13.50
2023-05-16T04:33:55.958Z,14.13
2023-05-16T04:36:24.701Z,12.77
2023-05-16T04:38:53.336Z,11.80
2023-05-16T04:41:22.800Z,11.00
2023-05-16T04:43:51.883Z,11.37
2023-05-16T04:46:20.871Z,11.50
2023-05-16T04:48:49.545Z,12.90
2023-05-16T04:51:19.521Z,12.43
2023-05-16T04:53:48.177Z,11.97
2023-05-16T04:56:16.782Z,14.17
2023-05-16T04:58:45.500Z,15.50
2023-05-16T05:01:14.155Z,18.83
2023-05-16T05:03:42.832Z,19.50
2023-05-16T05:06:11.458Z,23.30
2023-05-16T05:08:41.438Z,21.90
2023-05-16T05:11:10.043Z,26.70
2023-05-16T05:13:38.707Z,29.97
2023-05-16T05:16:07.701Z,30.90
2023-05-16T05:18:36.394Z,31.57
2023-05-16T05:21:05.371Z,33.77
2023-05-16T05:23:34.898Z,29.97
2023-05-16T05:26:05.146Z,30.20
2023-05-16T05:28:33.782Z,32.00
2023-05-16T05:31:02.509Z,29.90
2023-05-16T05:33:31.370Z,30.97
2023-05-16T05:36:00.980Z,30.33
2023-05-16T05:38:31.275Z,29.00
2023-05-16T05:40:59.867Z,29.80
2023-05-16T05:43:29.886Z,29.73
2023-05-16T05:45:58.612Z,30.67
2023-05-16T05:48:28.635Z,31.97
2023-05-16T05:50:57.711Z,30.33
2023-05-16T05:53:26.288Z,30.67
2023-05-16T05:55:54.909Z,31.03
2023-05-16T05:58:23.531Z,31.90
2023-05-16T06:00:53.499Z,31.23
2023-05-16T06:03:22.196Z,30.97
2023-05-16T06:05:51.042Z,27.73
2023-05-16T06:08:19.803Z,29.17
2023-05-16T06:10:48.606Z,28.00
2023-05-16T06:13:17.182Z,30.97
2023-05-16T06:15:45.825Z,27.40
2023-05-16T06:18:15.913Z,29.73
2023-05-16T06:20:44.489Z,27.60
2023-05-16T06:23:13.324Z,27.57
2023-05-16T06:25:41.875Z,26.50
2023-05-16T06:28:10.563Z,27.33
2023-05-16T06:30:39.212Z,28.20
2023-05-16T06:33:08.005Z,23.23
2023-05-16T06:35:38.104Z,22.60
2023-05-16T06:38:06.725Z,24.50
2023-05-16T06:40:35.348Z,23.47
2023-05-16T06:43:04.032Z,26.60
2023-05-16T06:45:32.769Z,23.70
2023-05-16T06:48:01.529Z,22.00
2023-05-16T06:50:30.268Z,21.13
2023-05-16T06:53:00.632Z,20.67
2023-05-16T06:55:29.551Z,21.07
2023-05-16T06:57:58.371Z,21.10
2023-05-16T07:00:27.296Z,19.77
2023-05-16T07:02:56.331Z,18.40
2023-05-16T07:05:25.262Z,19.83
2023-05-16T07:07:54.072Z,18.17
2023-05-16T07:10:24.247Z,18.17
2023-05-16T07:12:52.953Z,17.80
2023-05-16T07:15:21.614Z,18.60
2023-05-16T07:17:51.009Z,17.20
2023-05-16T07:20:19.783Z,17.60
2023-05-16T07:22:48.449Z,16.53
2023-05-16T07:25:17.280Z,16.53
2023-05-16T07:27:47.316Z,15.60
2023-05-16T07:30:16.510Z,15.87
2023-05-16T07:32:45.319Z,15.80
2023-05-16T07:35:14.260Z,15.40
2023-05-16T07:37:43.544Z,16.87
2023-05-16T07:40:13.213Z,14.93
2023-05-16T07:42:41.854Z,17.60
2023-05-16T07:45:12.138Z,15.90
2023-05-16T07:47:40.953Z,17.43
2023-05-16T07:50:10.637Z,17.77
2023-05-16T07:52:39.276Z,17.50
2023-05-16T07:55:09.320Z,15.50
2023-05-16T07:57:38.109Z,17.57
2023-05-16T08:00:08.326Z,15.43
2023-05-16T08:02:38.550Z,16.17
2023-05-16T08:05:08.850Z,14.07
2023-05-16T08:07:37.665Z,15.30
2023-05-16T08:10:07.346Z,14.83
2023-05-16T08:12:36.067Z,13.83
2023-05-16T08:15:05.084Z,13.77
2023-05-16T08:17:33.781Z,12.90
2023-05-16T08:20:04.230Z,11.80
2023-05-16T08:22:33.299Z,13.20
2023-05-16T08:25:01.942Z,12.83
2023-05-16T08:27:30.796Z,13.10
2023-05-16T08:29:59.533Z,13.00
2023-05-16T08:32:28.256Z,11.50
2023-05-16T08:34:56.972Z,11.13
2023-05-16T08:37:27.035Z,11.20
2023-05-16T08:39:55.716Z,10.83
2023-05-16T08:42:24.399Z,10.83
2023-05-16T08:44:53.331Z,10.10
2023-05-16T08:47:23.070Z,9.23
2023-05-16T08:49:53.144Z,9.67
2023-05-16T08:52:22.859Z,10.43
2023-05-16T08:55:09.267Z,10.90
2023-05-16T08:57:40.250Z,10.00
2023-05-16T09:00:12.637Z,10.23
2023-05-16T09:02:41.788Z,10.17
2023-05-16T09:05:12.684Z,10.23
2023-05-16T09:07:41.748Z,11.40
2023-05-16T09:10:12.537Z,10.97
2023-05-16T09:12:41.768Z,12.10
2023-05-16T09:15:11.734Z,10.93
2023-05-16T09:17:45.007Z,11.00
2023-05-16T09:20:15.603Z,12.23
2023-05-16T09:22:52.617Z,11.60
2023-05-16T09:25:30.371Z,10.87
2023-05-16T09:28:01.573Z,12.73
2023-05-16T09:30:32.380Z,11.60
2023-05-16T09:33:01.327Z,12.17
2023-05-16T09:35:44.098Z,12.70
2023-05-16T09:38:18.724Z,13.20
2023-05-16T09:40:48.815Z,13.00
2023-05-16T09:43:18.658Z,14.20
2023-05-16T09:45:49.031Z,15.10
2023-05-16T09:48:18.809Z,16.00
2023-05-16T09:50:49.846Z,16.10
2023-05-16T09:53:18.869Z,16.20
2023-05-16T09:55:48.974Z,15.97
2023-05-16T09:58:19.195Z,15.90
2023-05-16T10:00:48.108Z,16.33
2023-05-16T10:03:16.946Z,16.50
2023-05-16T10:05:45.721Z,16.83
2023-05-16T10:08:15.014Z,16.80
2023-05-16T10:10:43.921Z,17.90
2023-05-16T10:13:14.394Z,18.03
2023-05-16T10:15:43.084Z,17.00
2023-05-16T10:18:13.371Z,17.50
2023-05-16T10:20:43.948Z,16.60
2023-05-16T10:23:18.137Z,18.10
2023-05-16T10:25:48.212Z,17.00
2023-05-16T10:28:18.330Z,16.00
2023-05-16T10:30:48.129Z,17.67
2023-05-16T10:33:18.368Z,18.00
2023-05-16T10:35:47.516Z,17.60
2023-05-16T10:38:18.561Z,17.53
2023-05-16T10:40:48.455Z,17.77
2023-05-16T10:43:26.678Z,17.60
2023-05-16T10:45:56.476Z,15.20
2023-05-16T10:48:32.558Z,15.87
2023-05-16T10:51:02.731Z,16.40
2023-05-16T10:53:32.616Z,15.17
2023-05-16T10:56:11.812Z,15.73
2023-05-16T10:58:47.388Z,15.30
2023-05-16T11:01:17.544Z,15.70
2023-05-16T11:04:02.990Z,15.10
2023-05-16T11:06:33.160Z,15.90
2023-05-16T11:09:10.586Z,16.10
2023-05-16T11:11:47.901Z,16.90
2023-05-16T11:14:23.489Z,16.60
2023-05-16T11:16:53.434Z,15.30
2023-05-16T11:19:33.300Z,14.80
2023-05-16T11:22:15.643Z,14.17
2023-05-16T11:24:52.106Z,15.37
2023-05-16T11:27:26.670Z,15.10
2023-05-16T11:30:03.709Z,15.00
2023-05-16T11:32:35.902Z,15.90
2023-05-16T11:35:08.049Z,15.27
2023-05-16T11:37:37.789Z,15.77
2023-05-16T11:40:08.555Z,15.40
2023-05-16T11:42:40.251Z,13.37
2023-05-16T11:45:12.321Z,12.70
2023-05-16T11:47:42.074Z,11.50
2023-05-16T11:50:14.224Z,13.30
2023-05-16T11:52:45.386Z,11.00
2023-05-16T11:55:21.487Z,10.53
2023-05-16T11:57:58.509Z,10.83
2023-05-16T12:00:28.794Z,10.00
2023-05-16T12:03:04.678Z,8.83
2023-05-16T12:05:34.754Z,9.73
2023-05-16T12:08:05.608Z,9.50
2023-05-16T12:10:35.263Z,10.00
2023-05-16T12:13:04.397Z,9.43
2023-05-16T12:15:34.507Z,9.33
2023-05-16T12:18:03.689Z,9.00
2023-05-16T12:20:32.500Z,8.53
2023-05-16T12:23:01.326Z,8.40
2023-05-16T12:25:31.995Z,8.10
2023-05-16T12:28:02.030Z,8.50
2023-05-16T12:30:32.090Z,7.77
2023-05-16T12:33:10.471Z,8.97
2023-05-16T12:35:40.832Z,7.67
2023-05-16T12:38:11.177Z,7.70
2023-05-16T12:40:41.363Z,6.90
2023-05-16T12:43:14.724Z,7.97
2023-05-16T12:45:44.347Z,6.97
2023-05-16T12:48:15.256Z,6.07
2023-05-16T12:50:44.290Z,6.30
2023-05-16T12:53:14.463Z,6.90
2023-05-16T12:55:43.892Z,5.63
2023-05-16T12:58:13.019Z,5.40
2023-05-16T13:00:41.786Z,5.10
2023-05-16T13:03:10.615Z,5.53
2023-05-16T13:05:41.093Z,5.10
2023-05-16T13:08:09.784Z,5.33
2023-05-16T13:10:38.479Z,4.83
2023-05-16T13:13:07.328Z,4.80
2023-05-16T13:15:36.045Z,4.93
2023-05-16T13:18:04.972Z,5.10
2023-05-16T13:20:33.707Z,4.53
2023-05-16T13:23:05.233Z,4.17
2023-05-16T13:25:34.562Z,3.73
2023-05-16T13:28:03.352Z,3.93
2023-05-16T13:30:32.471Z,3.93
2023-05-16T13:33:01.286Z,3.50
2023-05-16T13:35:30.305Z,3.70
2023-05-16T13:37:59.179Z,4.00
2023-05-16T13:40:29.403Z,3.33
2023-05-16T13:42:58.052Z,3.00
2023-05-16T13:45:27.769Z,3.30
2023-05-16T13:47:56.690Z,2.77
2023-05-16T13:50:25.511Z,2.90
2023-05-16T13:52:54.445Z,2.97
2023-05-16T13:55:23.759Z,3.10
2023-05-16T13:57:53.771Z,2.87
2023-05-16T14:02:54.170Z,2.90
2023-05-16T14:05:22.946Z,2.60
2023-05-16T14:07:52.060Z,2.53
2023-05-16T14:10:20.867Z,2.00
2023-05-16T14:12:50.307Z,3.70
2023-05-16T14:15:21.038Z,3.93
2023-05-16T14:17:52.281Z,2.20
2023-05-16T14:20:21.207Z,2.63
2023-05-16T14:22:49.988Z,2.80
2023-05-16T14:25:18.733Z,2.63
2023-05-16T14:27:47.633Z,2.80
2023-05-16T14:30:16.340Z,3.10
2023-05-16T14:32:46.421Z,2.40
2023-05-16T14:35:15.161Z,2.20
2023-05-16T14:37:43.817Z,2.40
2023-05-16T14:40:13.027Z,2.60
2023-05-16T14:42:41.684Z,2.50
2023-05-16T14:45:10.960Z,2.50
2023-05-16T14:47:39.850Z,1.97
2023-05-16T14:50:11.085Z,2.27
2023-05-16T14:52:41.192Z,2.10
2023-05-16T14:55:09.954Z,1.87
2023-05-16T14:57:38.626Z,2.57
2023-05-16T15:00:10.715Z,2.00
2023-05-16T15:02:39.518Z,2.30
2023-05-16T15:05:10.598Z,2.10
2023-05-16T15:07:39.258Z,2.20
2023-05-16T15:10:09.100Z,2.40
2023-05-16T15:12:37.799Z,2.13
2023-05-16T15:15:07.594Z,2.00
2023-05-16T15:17:36.707Z,2.30
2023-05-16T15:20:07.423Z,2.43
2023-05-16T15:22:37.621Z,2.70
2023-05-16T15:25:07.489Z,1.87
2023-05-16T15:27:36.327Z,2.30
2023-05-16T15:30:05.690Z,2.00
2023-05-16T15:32:34.392Z,1.83
2023-05-16T15:35:03.893Z,1.63
2023-05-16T15:37:32.682Z,2.43
2023-05-16T15:40:04.402Z,1.70
2023-05-16T15:42:33.112Z,1.50
2023-05-16T15:45:01.880Z,1.37
2023-05-16T15:47:30.845Z,1.87
2023-05-16T15:49:59.555Z,1.37
2023-05-16T15:52:28.474Z,2.00
2023-05-16T15:54:57.205Z,2.23
2023-05-16T15:57:27.282Z,1.37
2023-05-16T15:59:56.008Z,3.37
2023-05-16T16:02:24.759Z,4.13
2023-05-16T16:04:54.030Z,3.47
2023-05-16T16:07:22.743Z,3.97
2023-05-16T16:09:51.509Z,1.80
2023-05-16T16:12:20.172Z,1.80
2023-05-16T16:14:50.298Z,1.50
2023-05-16T16:17:19.166Z,1.50
2023-05-16T16:19:48.170Z,1.87
2023-05-16T16:22:17.058Z,1.53
2023-05-16T16:24:45.764Z,1.73
2023-05-16T16:27:14.431Z,1.87
2023-05-16T16:29:43.271Z,1.53
2023-05-16T16:32:13.296Z,1.83
2023-05-16T16:34:41.986Z,1.80
2023-05-16T16:37:11.589Z,1.80
2023-05-16T16:39:40.341Z,2.30
2023-05-16T16:42:09.374Z,1.70
2023-05-16T16:44:38.010Z,1.87
2023-05-16T16:47:06.850Z,1.93
2023-05-16T16:49:36.955Z,1.80
2023-05-16T16:52:06.124Z,1.80
2023-05-16T16:54:34.963Z,1.53
2023-05-16T16:57:03.635Z,1.40
2023-05-16T16:59:32.705Z,2.57
2023-05-16T17:02:01.489Z,1.67
2023-05-16T17:04:30.246Z,1.80
2023-05-16T17:07:00.242Z,1.80
2023-05-16T17:09:28.877Z,1.23
2023-05-16T17:11:57.712Z,1.60
2023-05-16T17:14:26.350Z,1.93
2023-05-16T17:16:55.105Z,2.10
2023-05-16T17:19:23.918Z,2.17
2023-05-16T17:21:52.708Z,1.77
2023-05-16T17:24:22.870Z,2.03
2023-05-16T17:26:51.525Z,1.70
2023-05-16T17:29:20.204Z,3.60
2023-05-16T17:31:48.861Z,3.60
2023-05-16T17:34:17.595Z,1.80
2023-05-16T17:36:46.327Z,1.80
2023-05-16T17:39:14.984Z,2.40
2023-05-16T17:41:45.042Z,1.80
2023-05-16T17:44:13.982Z,1.40
2023-05-16T17:46:43.121Z,1.60
2023-05-16T17:49:11.896Z,1.87
2023-05-16T17:51:47.999Z,1.70
2023-05-16T17:54:17.557Z,1.50
2023-05-16T17:56:47.823Z,1.70
2023-05-16T17:59:17.238Z,2.40
2023-05-16T18:01:46.340Z,2.10
2023-05-16T18:04:15.338Z,2.00
2023-05-16T18:06:44.134Z,1.60
2023-05-16T18:09:15.025Z,1.83
2023-05-16T18:11:43.852Z,1.57
2023-05-16T18:14:15.438Z,1.77
2023-05-16T18:16:44.872Z,1.30
2023-05-16T18:19:14.690Z,1.30
2023-05-16T18:21:44.360Z,1.60
2023-05-16T18:24:13.438Z,1.40
2023-05-16T18:26:44.337Z,1.67
2023-05-16T18:29:14.604Z,1.53
2023-05-16T18:31:43.390Z,1.70
2023-05-16T18:34:12.411Z,1.83
2023-05-16T18:36:41.126Z,1.43
2023-05-16T18:39:10.664Z,1.47
2023-05-16T18:41:39.491Z,1.80
2023-05-16T18:44:08.174Z,1.40
2023-05-16T18:46:38.221Z,2.10
2023-05-16T18:49:06.876Z,1.47
2023-05-16T18:51:35.575Z,1.45
2023-05-16T18:54:04.520Z,1.93
2023-05-16T18:56:33.233Z,1.57
2023-05-16T18:59:01.930Z,1.53
2023-05-16T19:01:30.643Z,2.50
2023-05-16T19:04:00.824Z,2.00
2023-05-16T19:06:29.637Z,1.30
2023-05-16T19:08:58.374Z,1.80
2023-05-16T19:11:27.176Z,2.60
2023-05-16T19:13:55.844Z,1.73
2023-05-16T19:16:25.867Z,2.43
2023-05-16T19:18:54.692Z,1.20
2023-05-16T19:21:24.926Z,1.63
2023-05-16T19:23:53.638Z,1.30
2023-05-16T19:26:22.878Z,1.20
2023-05-16T19:28:51.519Z,1.30
2023-05-16T19:31:20.212Z,1.47
2023-05-16T19:33:48.921Z,1.53
2023-05-16T19:36:17.703Z,1.30
2023-05-16T19:38:47.671Z,1.03
2023-05-16T19:41:16.569Z,1.33
2023-05-16T19:43:45.214Z,1.60
2023-05-16T19:46:13.907Z,1.43
2023-05-16T19:48:42.766Z,1.07
2023-05-16T19:51:11.549Z,1.70
2023-05-16T19:53:40.789Z,1.40
2023-05-16T19:56:11.011Z,1.40
2023-05-16T19:58:39.659Z,1.30
2023-05-16T20:01:08.327Z,2.00
2023-05-16T20:03:37.149Z,1.60
2023-05-16T20:06:06.464Z,1.23
2023-05-16T20:08:35.152Z,1.30
2023-05-16T20:11:03.842Z,2.10
2023-05-16T20:13:33.905Z,1.30
2023-05-16T20:16:03.688Z,1.50
2023-05-16T20:18:32.454Z,1.10
2023-05-16T20:21:01.174Z,1.50
2023-05-16T20:23:29.862Z,1.30
2023-05-16T20:25:58.556Z,1.40
2023-05-16T20:28:27.230Z,1.20
2023-05-16T20:30:57.266Z,1.47
2023-05-16T20:33:26.120Z,1.30
2023-05-16T20:35:54.877Z,1.30
2023-05-16T20:38:23.535Z,1.20
2023-05-16T20:40:52.261Z,1.53
2023-05-16T20:43:22.040Z,1.10
2023-05-16T20:45:51.910Z,1.87
2023-05-16T20:48:21.962Z,1.63
2023-05-16T20:50:50.877Z,1.57
2023-05-16T20:53:19.585Z,1.30
2023-05-16T20:55:48.251Z,1.40
2023-05-16T20:58:16.905Z,2.40
2023-05-16T21:00:45.608Z,1.40
2023-05-16T21:03:14.824Z,1.10
2023-05-16T21:05:44.892Z,1.10
2023-05-16T21:08:13.660Z,1.20
2023-05-16T21:10:42.312Z,1.90
2023-05-16T21:13:11.114Z,1.47
2023-05-16T21:15:39.861Z,1.13
2023-05-16T21:18:08.869Z,1.40
2023-05-16T21:20:37.650Z,1.40
2023-05-16T21:23:07.751Z,1.30
2023-05-16T21:25:36.864Z,1.07
2023-05-16T21:28:06.093Z,1.53
2023-05-16T21:30:34.814Z,1.23
2023-05-16T21:33:03.544Z,1.43
2023-05-16T21:35:32.720Z,1.23
2023-05-16T21:38:01.393Z,1.07
2023-05-16T21:40:31.499Z,1.03
2023-05-16T21:43:00.151Z,1.17
2023-05-16T21:45:29.282Z,1.20
2023-05-16T21:47:58.328Z,0.97
2023-05-16T21:50:27.172Z,1.50
2023-05-16T21:52:55.870Z,1.57
2023-05-16T21:55:24.762Z,1.13
2023-05-16T21:57:54.734Z,1.43
2023-05-16T22:00:23.966Z,1.40
2023-05-16T22:02:52.751Z,1.63
2023-05-16T22:05:21.516Z,1.47
2023-05-16T22:07:50.725Z,1.67
2023-05-16T22:10:20.021Z,1.10
2023-05-16T22:12:48.701Z,1.30
2023-05-16T22:15:18.708Z,1.40
2023-05-16T22:17:48.240Z,1.20
2023-05-16T22:20:17.096Z,1.20
2023-05-16T22:22:46.005Z,1.40
2023-05-16T22:25:15.667Z,1.07
2023-05-16T22:27:44.430Z,1.40
2023-05-16T22:30:13.644Z,1.20
2023-05-16T22:32:45.576Z,1.50
2023-05-16T22:35:14.544Z,1.10
2023-05-16T22:37:43.178Z,1.17
2023-05-16T22:40:12.540Z,1.47
2023-05-16T22:42:41.051Z,1.50
2023-05-16T22:45:10.455Z,1.00
2023-05-16T22:47:39.137Z,1.67
2023-05-16T22:50:09.946Z,1.23
2023-05-16T22:52:41.655Z,2.00
2023-05-16T22:55:10.876Z,2.07
2023-05-16T22:57:39.456Z,1.83
2023-05-16T23:00:09.499Z,1.30
2023-05-16T23:02:38.141Z,1.53
2023-05-16T23:05:09.286Z,1.73
2023-05-16T23:07:37.938Z,1.70
2023-05-16T23:10:08.371Z,1.10
2023-05-16T23:12:37.744Z,1.20
2023-05-16T23:15:10.080Z,1.50
2023-05-16T23:17:39.372Z,1.20
2023-05-16T23:20:10.198Z,1.30
2023-05-16T23:22:38.889Z,1.20
2023-05-16T23:25:08.008Z,1.50
2023-05-16T23:27:36.682Z,1.20
2023-05-16T23:30:07.789Z,1.10
2023-05-16T23:32:37.425Z,1.10
2023-05-16T23:35:07.211Z,1.50
2023-05-16T23:37:37.217Z,1.50
2023-05-16T23:40:07.126Z,1.10
2023-05-16T23:42:36.703Z,2.03
2023-05-16T23:45:06.268Z,1.43
2023-05-16T23:47:35.072Z,1.37
2023-05-16T23:50:03.981Z,1.17
2023-05-16T23:52:32.661Z,1.00
2023-05-16T23:55:02.763Z,1.30
2023-05-16T23:57:31.399Z,1.60
